Ploërmel Loyat Airfield

LFRP · 布列塔尼半岛, 法国

罗盘
风向 的 风向 110° Ploërmel Loyat Airfield 10/28
风: 5 kt, 2 beaufort

5 kt

1 kt
改变
0 1.000 2.000 3.000 4.000 5.000
OVC 300 ft
METAR LFRV 030730Z AUTO 11005KT 3100 DZ BR OVC003 13/13 Q1024

METAR Ploërmel Loyat Airfield - LFRP

Ploërmel Loyat Airfield是Rennes,法国中的小机场。 该机场有一条跑道: 10/28. 该领域的国际民航组织标志是LFRP.

这份报告是针对2022年10月3日 09:30, 当地时间在Vannes-Meucon Airport进行的。

机场观察

风向为110°,速度为5 kt。

可见度为3,1 km。

有乌云密布在300 ft的高度。 破损或更高的上限为300 ft。

当前天气为细雨, 薄雾。 温度和风寒是13 °C。 露点为13 °C,相对湿度为100%。 海平面上的气压为1024 hPa (QNH)。

白天

今天,太阳从08:11升起,在19:45降落。 这适用于Ploërmel Loyat Airfield,世界夏令时可能有所不同。 当地时间与世界标准时间之间的时差为+2 小时。 夏令时目前正在进行中。

公司介绍

在这个机场,你可以找到滑翔机飞行俱乐部 和 飞行俱乐部。 这个机场上的公司有Planeurs de Brocéliande 和 Ulm Club De BrocÉliande。

体会

到Vliegles.nl去找飞行课程,跳伞和其他飞行体验。 浏览页面,了解Ploërmel Loyat Airfield附近所有可用的活动。 你也可以使用搜索功能来寻找你所在地附近的特定飞行课程、跳伞或其他飞行体验。

跑道

Id 标题 侧风 逆风 侧风 %
10/28 100°-280° 5 kt 17 %

逆风成分最大的方向会被突出显示,并用于横风计算。 这并不一定意味着这个方向在使用。

乌云

300 ft OVC 乌云密布

温度 & 天气

天气 细雨
薄雾
温度 13 °C
露点 13 °C
相对湿度 100%
Kp-index 2 (0-9)

白天

日出
08:12
中午
13:59
日落
19:47 (10h 06m)

小工具

你想在你的网站上有一个关于Ploërmel Loyat Airfield的当前航空天气(METAR)的小部件吗?

</> 显示HTML代码

我们和第三方通过cookies跟踪您在我们网站上的上网行为。如果您继续,我们认为您同意我们的cookie政策。 了解更多